Latest Weather Observations for Little Bay

IDN60901

Issued at 7:21 am EST Monday 27 May 2024 (issued every 10 minutes, with the page automatically refreshed every 10 minutes)

About weather observations | Map of Sydney area stations | Latest observations for Sydney area | Other Formats
Station Details ID: 066051 Name: LITTLE BAY (THE COAST GOLF CLUB) Lat: -33.98 Lon: 151.25 Height: 22.0 m
Data from the previous 72 hours. | See also: Recent months at Little Bay
Date/Time
EST
Temp
°C
App
Temp
°C
Dew
Point
°C
Rel
Hum
%
Delta-T
°C
Wind Press
QNH
hPa
Press
MSL
hPa
Rain since
9am
mm
Dir  Spd
km/h
Gust
km/h
Spd
kts
Gust
kts
27/07:00am - - - - - WNW 11 15 6 8 - - -
27/06:30am - - - - - WNW 11 15 6 8 - - -
27/06:00am - - - - - WNW 13 17 7 9 - - -
27/05:30am - - - - - WNW 11 15 6 8 - - -
27/05:00am - - - - - WNW 13 19 7 10 - - -
27/04:30am - - - - - WNW 11 17 6 9 - - -
27/04:00am - - - - - WNW 11 17 6 9 - - -
27/03:30am - - - - - WNW 11 17 6 9 - - -
27/03:00am - - - - - WNW 13 19 7 10 - - -
27/02:30am - - - - - WNW 11 17 6 9 - - -
27/02:00am - - - - - WNW 11 15 6 8 - - -
27/01:30am - - - - - WNW 9 13 5 7 - - -
27/01:00am - - - - - WNW 9 13 5 7 - - -
27/12:30am - - - - - WNW 11 13 6 7 - - -
27/12:00am - - - - - WNW 9 13 5 7 - - -
 
Date/Time
EST
Temp
°C
App
Temp
°C
Dew
Point
°C
Rel
Hum
%
Delta-T
°C
Wind Press
QNH
hPa
Press
MSL
hPa
Rain since
9am
mm
Dir  Spd
km/h
Gust
km/h
Spd
kts
Gust
kts
26/11:30pm - - - - - WNW 6 9 3 5 - - -
26/11:00pm - - - - - W 7 13 4 7 - - -
26/10:30pm - - - - - WSW 9 13 5 7 - - -
26/10:00pm - - - - - W 9 11 5 6 - - -
26/09:30pm - - - - - WSW 9 11 5 6 - - -
26/09:00pm - - - - - W 7 7 4 4 - - -
26/08:30pm - - - - - W 7 9 4 5 - - -
26/08:00pm - - - - - W 7 7 4 4 - - -
26/07:30pm - - - - - W 7 7 4 4 - - -
26/07:00pm - - - - - SSW 4 6 2 3 - - -
26/06:30pm - - - - - S 4 6 2 3 - - -
26/06:00pm - - - - - SSW 4 6 2 3 - - -
26/05:30pm - - - - - S 2 4 1 2 - - -
26/05:00pm - - - - - CALM 0 2 0 1 - - -
26/04:30pm - - - - - SE 4 7 2 4 - - -
26/04:00pm - - - - - SE 6 7 3 4 - - -
26/03:30pm - - - - - SE 6 6 3 3 - - -
26/03:00pm - - - - - SE 6 6 3 3 - - -
26/02:30pm - - - - - SE 6 7 3 4 - - -
26/02:00pm - - - - - SE 6 7 3 4 - - -
26/01:30pm - - - - - SSE 6 9 3 5 - - -
26/01:00pm - - - - - S 2 9 1 5 - - -
26/12:30pm - - - - - W 6 11 3 6 - - -
26/12:00pm - - - - - W 7 13 4 7 - - -
26/11:30am - - - - - W 7 11 4 6 - - -
26/11:00am - - - - - NW 6 11 3 6 - - -
26/10:30am - - - - - NW 6 9 3 5 - - -
26/10:00am - - - - - W 6 9 3 5 - - -
26/09:30am - - - - - WNW 4 6 2 3 - - -
26/09:00am - - - - - NW 4 9 2 5 - - -
26/08:30am - - - - - WNW 6 9 3 5 - - -
26/08:00am - - - - - WNW 9 13 5 7 - - -
26/07:30am - - - - - WNW 11 15 6 8 - - -
26/07:00am - - - - - W 13 17 7 9 - - -
26/06:30am - - - - - WNW 13 15 7 8 - - -
26/06:00am - - - - - WNW 11 15 6 8 - - -
26/05:30am - - - - - WNW 11 15 6 8 - - -
26/05:00am - - - - - WNW 11 17 6 9 - - -
26/04:30am - - - - - WNW 11 17 6 9 - - -
26/04:00am - - - - - WNW 9 11 5 6 - - -
26/03:30am - - - - - WNW 9 13 5 7 - - -
26/03:00am - - - - - WNW 7 13 4 7 - - -
26/02:30am - - - - - WNW 7 11 4 6 - - -
26/02:00am - - - - - WNW 7 9 4 5 - - -
26/01:30am - - - - - W 7 9 4 5 - - -
26/01:00am - - - - - WNW 9 11 5 6 - - -
26/12:30am - - - - - WNW 7 9 4 5 - - -
26/12:00am - - - - - WNW 7 11 4 6 - - -
 
Date/Time
EST
Temp
°C
App
Temp
°C
Dew
Point
°C
Rel
Hum
%
Delta-T
°C
Wind Press
QNH
hPa
Press
MSL
hPa
Rain since
9am
mm
Dir  Spd
km/h
Gust
km/h
Spd
kts
Gust
kts
25/11:30pm - - - - - WNW 9 11 5 6 - - -
25/11:00pm - - - - - WNW 7 11 4 6 - - -
25/10:30pm - - - - - WNW 7 9 4 5 - - -
25/10:00pm - - - - - WNW 7 9 4 5 - - -
25/09:30pm - - - - - WNW 7 11 4 6 - - -
25/09:00pm - - - - - WNW 7 9 4 5 - - -
25/08:30pm - - - - - W 9 11 5 6 - - -
25/08:00pm - - - - - W 7 9 4 5 - - -
25/07:30pm - - - - - W 7 11 4 6 - - -
25/07:00pm - - - - - W 7 7 4 4 - - -
25/06:30pm - - - - - W 6 7 3 4 - - -
25/06:00pm - - - - - W 6 7 3 4 - - -
25/05:30pm - - - - - W 6 6 3 3 - - -
25/05:00pm - - - - - WSW 4 4 2 2 - - -
25/04:30pm - - - - - WSW 4 4 2 2 - - -
25/04:00pm - - - - - WSW 2 4 1 2 - - -
25/03:30pm - - - - - WSW 2 6 1 3 - - -
25/03:00pm - - - - - SW 2 4 1 2 - - -
25/02:30pm - - - - - WSW 6 9 3 5 - - -
25/02:00pm - - - - - SW 9 15 5 8 - - -
25/01:30pm - - - - - SSW 13 15 7 8 - - -
25/01:00pm - - - - - SSW 9 15 5 8 - - -
25/12:30pm - - - - - SSW 11 17 6 9 - - -
25/12:00pm - - - - - SSW 11 15 6 8 - - -
25/11:30am - - - - - SSW 13 17 7 9 - - -
25/11:00am - - - - - WSW 6 7 3 4 - - -
25/10:30am - - - - - W 7 11 4 6 - - -
25/10:00am - - - - - W 9 13 5 7 - - -
25/09:30am - - - - - WNW 9 13 5 7 - - -
25/09:00am - - - - - WNW 9 13 5 7 - - -
25/08:30am - - - - - WNW 9 13 5 7 - - -
25/08:00am - - - - - WNW 9 15 5 8 - - -
25/07:30am - - - - - WNW 9 13 5 7 - - -
25/07:00am - - - - - WNW 9 15 5 8 - - -
25/06:30am - - - - - WNW 9 15 5 8 - - -
25/06:00am - - - - - WNW 9 13 5 7 - - -
25/05:30am - - - - - WNW 9 13 5 7 - - -
25/05:00am - - - - - WNW 9 13 5 7 - - -
25/04:30am - - - - - WNW 11 15 6 8 - - -
25/04:00am - - - - - W 9 13 5 7 - - -
25/03:30am - - - - - WNW 11 15 6 8 - - -
25/03:00am - - - - - WNW 9 13 5 7 - - -
25/02:30am - - - - - W 9 11 5 6 - - -
25/02:00am - - - - - SW 7 9 4 5 - - -
25/01:30am - - - - - W 9 15 5 8 - - -
25/01:00am - - - - - SW 9 15 5 8 - - -
25/12:30am - - - - - SSW 13 20 7 11 - - -
25/12:00am - - - - - SSW 15 20 8 11 - - -
 
Date/Time
EST
Temp
°C
App
Temp
°C
Dew
Point
°C
Rel
Hum
%
Delta-T
°C
Wind Press
QNH
hPa
Press
MSL
hPa
Rain since
9am
mm
Dir  Spd
km/h
Gust
km/h
Spd
kts
Gust
kts
24/11:30pm - - - - - SSW 13 22 7 12 - - -
24/11:00pm - - - - - SW 15 22 8 12 - - -
24/10:30pm - - - - - SW 11 17 6 9 - - -
24/10:00pm - - - - - WSW 9 15 5 8 - - -
24/09:30pm - - - - - WSW 9 15 5 8 - - -
24/09:00pm - - - - - SW 13 19 7 10 - - -
24/08:30pm - - - - - SSW 11 20 6 11 - - -
24/08:00pm - - - - - SSW 15 22 8 12 - - -
24/07:30pm - - - - - SW 13 19 7 10 - - -
24/07:00pm - - - - - SW 11 17 6 9 - - -
24/06:30pm - - - - - SSW 9 15 5 8 - - -
24/06:00pm - - - - - SSW 9 17 5 9 - - -
24/05:30pm - - - - - SSW 9 13 5 7 - - -
24/05:00pm - - - - - SSW 11 13 6 7 - - -
24/04:30pm - - - - - S 13 19 7 10 - - -
24/04:00pm - - - - - S 15 20 8 11 - - -
24/03:30pm - - - - - S 13 19 7 10 - - -
24/03:00pm - - - - - S 13 20 7 11 - - -
24/02:30pm - - - - - S 11 15 6 8 - - -
24/02:00pm - - - - - S 13 17 7 9 - - -
24/01:30pm - - - - - S 13 17 7 9 - - -
24/01:00pm - - - - - S 13 17 7 9 - - -
24/12:30pm - - - - - SSW 13 17 7 9 - - -
24/12:00pm - - - - - S 13 17 7 9 - - -
24/11:30am - - - - - SW 7 15 4 8 - - -
24/11:00am - - - - - WSW 7 13 4 7 - - -
24/10:30am - - - - - W 9 13 5 7 - - -
24/10:00am - - - - - WNW 9 17 5 9 - - -
24/09:30am - - - - - WNW 11 15 6 8 - - -
24/09:00am - - - - - WNW 13 17 7 9 - - -
24/08:30am - - - - - WNW 11 19 6 10 - - -
24/08:00am - - - - - WNW 13 19 7 10 - - -
24/07:30am - - - - - WNW 13 19 7 10 - - -

Latest Capital City Observations: Canberra | Sydney | Melbourne | Brisbane | Adelaide | Perth | Hobart | Darwin

Other formats

Comma delimited format used in spreadsheet applications
http://www.bom.gov.au/fwo/IDN60901/IDN60901.94780.axf

JavaScript Object Notation format (JSON) in row-major order
http://www.bom.gov.au/fwo/IDN60901/IDN60901.94780.json

Data quality

Most of these data are generated automatically and are frequently updated. Quality checks on data are not normally performed. It is possible for incorrect values to appear. Refer to information at About Latest Weather Observations and please check the disclaimer before using these data.